sensor_id;sensor_type;location;lat;lon;timestamp;P1;durP1;ratioP1;P2;durP2;ratioP2
76113;SDS011;64845;53.086;5.834;2023-07-28T00:00:06;38.70;;;10.95;;
76113;SDS011;64845;53.086;5.834;2023-07-28T00:02:32;45.92;;;10.90;;
76113;SDS011;64845;53.086;5.834;2023-07-28T00:04:58;41.25;;;11.32;;
76113;SDS011;64845;53.086;5.834;2023-07-28T00:07:23;44.85;;;11.68;;
76113;SDS011;64845;53.086;5.834;2023-07-28T00:09:48;46.28;;;12.82;;
76113;SDS011;64845;53.086;5.834;2023-07-28T00:12:14;52.33;;;13.40;;
76113;SDS011;64845;53.086;5.834;2023-07-28T00:14:39;40.25;;;12.68;;
76113;SDS011;64845;53.086;5.834;2023-07-28T00:17:05;55.03;;;13.98;;
76113;SDS011;64845;53.086;5.834;2023-07-28T00:19:30;44.70;;;12.82;;
76113;SDS011;64845;53.086;5.834;2023-07-28T00:21:56;42.45;;;12.35;;
76113;SDS011;64845;53.086;5.834;2023-07-28T00:24:21;40.75;;;11.23;;
76113;SDS011;64845;53.086;5.834;2023-07-28T00:26:46;45.30;;;11.75;;
76113;SDS011;64845;53.086;5.834;2023-07-28T00:29:12;53.45;;;12.85;;
76113;SDS011;64845;53.086;5.834;2023-07-28T00:31:37;42.67;;;11.93;;
76113;SDS011;64845;53.086;5.834;2023-07-28T00:34:03;42.97;;;12.23;;
76113;SDS011;64845;53.086;5.834;2023-07-28T00:36:29;39.42;;;11.75;;
76113;SDS011;64845;53.086;5.834;2023-07-28T00:38:54;45.25;;;12.18;;
76113;SDS011;64845;53.086;5.834;2023-07-28T00:41:20;50.03;;;12.18;;
76113;SDS011;64845;53.086;5.834;2023-07-28T00:43:45;42.00;;;12.27;;
76113;SDS011;64845;53.086;5.834;2023-07-28T00:46:11;52.78;;;13.45;;
76113;SDS011;64845;53.086;5.834;2023-07-28T00:48:37;50.38;;;13.15;;
76113;SDS011;64845;53.086;5.834;2023-07-28T00:51:04;44.90;;;12.98;;
76113;SDS011;64845;53.086;5.834;2023-07-28T00:53:30;58.38;;;13.15;;
76113;SDS011;64845;53.086;5.834;2023-07-28T00:55:56;47.30;;;12.73;;
76113;SDS011;64845;53.086;5.834;2023-07-28T00:58:22;49.65;;;12.10;;
76113;SDS011;64845;53.086;5.834;2023-07-28T01:00:47;52.03;;;12.70;;
76113;SDS011;64845;53.086;5.834;2023-07-28T01:03:13;56.42;;;12.45;;
76113;SDS011;64845;53.086;5.834;2023-07-28T01:06:14;58.05;;;12.75;;
76113;SDS011;64845;53.086;5.834;2023-07-28T01:11:25;59.78;;;12.00;;
76113;SDS011;64845;53.086;5.834;2023-07-28T01:13:50;42.78;;;11.77;;
76113;SDS011;64845;53.086;5.834;2023-07-28T01:16:16;46.03;;;12.45;;
76113;SDS011;64845;53.086;5.834;2023-07-28T01:18:41;53.70;;;11.00;;
76113;SDS011;64845;53.086;5.834;2023-07-28T01:21:08;48.33;;;10.77;;
76113;SDS011;64845;53.086;5.834;2023-07-28T01:26:33;46.05;;;10.85;;
76113;SDS011;64845;53.086;5.834;2023-07-28T01:29:00;49.85;;;10.02;;
76113;SDS011;64845;53.086;5.834;2023-07-28T01:31:27;33.58;;;9.00;;
76113;SDS011;64845;53.086;5.834;2023-07-28T01:33:52;43.65;;;9.13;;
76113;SDS011;64845;53.086;5.834;2023-07-28T01:36:18;47.40;;;8.73;;
76113;SDS011;64845;53.086;5.834;2023-07-28T01:38:43;45.00;;;9.40;;
76113;SDS011;64845;53.086;5.834;2023-07-28T01:41:09;49.85;;;9.00;;
76113;SDS011;64845;53.086;5.834;2023-07-28T01:43:34;38.38;;;8.43;;
76113;SDS011;64845;53.086;5.834;2023-07-28T01:45:59;41.90;;;8.82;;
76113;SDS011;64845;53.086;5.834;2023-07-28T01:48:25;38.35;;;7.63;;
76113;SDS011;64845;53.086;5.834;2023-07-28T01:50:51;50.72;;;8.77;;
76113;SDS011;64845;53.086;5.834;2023-07-28T01:53:16;38.45;;;7.72;;
76113;SDS011;64845;53.086;5.834;2023-07-28T01:55:42;44.40;;;8.18;;
76113;SDS011;64845;53.086;5.834;2023-07-28T01:58:07;41.13;;;7.78;;
76113;SDS011;64845;53.086;5.834;2023-07-28T02:00:32;46.10;;;7.85;;
76113;SDS011;64845;53.086;5.834;2023-07-28T02:02:58;44.45;;;7.50;;
76113;SDS011;64845;53.086;5.834;2023-07-28T02:05:26;37.92;;;7.25;;
76113;SDS011;64845;53.086;5.834;2023-07-28T02:07:52;41.67;;;7.05;;
76113;SDS011;64845;53.086;5.834;2023-07-28T02:10:17;36.35;;;7.10;;
76113;SDS011;64845;53.086;5.834;2023-07-28T02:12:43;45.38;;;7.35;;
76113;SDS011;64845;53.086;5.834;2023-07-28T02:15:08;36.25;;;7.15;;
76113;SDS011;64845;53.086;5.834;2023-07-28T02:17:34;46.55;;;7.65;;
76113;SDS011;64845;53.086;5.834;2023-07-28T02:19:59;40.15;;;8.38;;
76113;SDS011;64845;53.086;5.834;2023-07-28T02:22:27;38.67;;;8.27;;
76113;SDS011;64845;53.086;5.834;2023-07-28T02:24:52;34.70;;;7.63;;
76113;SDS011;64845;53.086;5.834;2023-07-28T02:27:18;31.35;;;7.22;;
76113;SDS011;64845;53.086;5.834;2023-07-28T02:29:43;40.67;;;8.15;;
76113;SDS011;64845;53.086;5.834;2023-07-28T02:32:08;32.67;;;7.32;;
76113;SDS011;64845;53.086;5.834;2023-07-28T02:34:34;31.92;;;7.03;;
76113;SDS011;64845;53.086;5.834;2023-07-28T02:36:59;42.80;;;7.57;;
76113;SDS011;64845;53.086;5.834;2023-07-28T02:39:25;31.85;;;7.22;;
76113;SDS011;64845;53.086;5.834;2023-07-28T02:41:50;36.45;;;7.00;;
76113;SDS011;64845;53.086;5.834;2023-07-28T02:44:15;52.17;;;7.60;;
76113;SDS011;64845;53.086;5.834;2023-07-28T02:46:41;39.08;;;6.75;;
76113;SDS011;64845;53.086;5.834;2023-07-28T02:49:06;40.78;;;6.85;;
76113;SDS011;64845;53.086;5.834;2023-07-28T02:51:32;41.72;;;6.97;;
76113;SDS011;64845;53.086;5.834;2023-07-28T02:53:59;41.55;;;6.25;;
76113;SDS011;64845;53.086;5.834;2023-07-28T02:56:24;43.55;;;7.20;;
76113;SDS011;64845;53.086;5.834;2023-07-28T02:58:50;48.72;;;7.15;;
76113;SDS011;64845;53.086;5.834;2023-07-28T03:01:15;44.60;;;7.00;;
76113;SDS011;64845;53.086;5.834;2023-07-28T03:03:41;42.65;;;6.72;;
76113;SDS011;64845;53.086;5.834;2023-07-28T03:06:06;36.33;;;7.32;;
76113;SDS011;64845;53.086;5.834;2023-07-28T03:08:31;43.63;;;6.20;;
76113;SDS011;64845;53.086;5.834;2023-07-28T03:10:57;32.08;;;6.30;;
76113;SDS011;64845;53.086;5.834;2023-07-28T03:13:23;38.03;;;6.70;;
76113;SDS011;64845;53.086;5.834;2023-07-28T03:15:49;27.67;;;6.10;;
76113;SDS011;64845;53.086;5.834;2023-07-28T03:18:14;35.05;;;6.53;;
76113;SDS011;64845;53.086;5.834;2023-07-28T03:20:39;38.53;;;6.57;;
76113;SDS011;64845;53.086;5.834;2023-07-28T03:23:05;30.30;;;6.43;;
76113;SDS011;64845;53.086;5.834;2023-07-28T03:25:30;40.28;;;6.45;;
76113;SDS011;64845;53.086;5.834;2023-07-28T03:27:55;28.45;;;6.47;;
76113;SDS011;64845;53.086;5.834;2023-07-28T03:30:21;35.60;;;6.50;;
76113;SDS011;64845;53.086;5.834;2023-07-28T03:32:46;41.05;;;6.50;;
76113;SDS011;64845;53.086;5.834;2023-07-28T03:35:11;36.90;;;6.47;;
76113;SDS011;64845;53.086;5.834;2023-07-28T03:37:38;28.98;;;6.22;;
76113;SDS011;64845;53.086;5.834;2023-07-28T03:40:03;27.92;;;6.07;;
76113;SDS011;64845;53.086;5.834;2023-07-28T03:42:29;27.98;;;6.30;;
76113;SDS011;64845;53.086;5.834;2023-07-28T03:44:54;29.27;;;6.90;;
76113;SDS011;64845;53.086;5.834;2023-07-28T03:47:20;27.83;;;5.90;;
76113;SDS011;64845;53.086;5.834;2023-07-28T03:49:45;30.92;;;6.85;;
76113;SDS011;64845;53.086;5.834;2023-07-28T03:52:11;37.08;;;6.43;;
76113;SDS011;64845;53.086;5.834;2023-07-28T03:54:36;21.70;;;5.90;;
76113;SDS011;64845;53.086;5.834;2023-07-28T03:57:02;30.10;;;6.32;;
76113;SDS011;64845;53.086;5.834;2023-07-28T03:59:27;32.17;;;6.93;;
76113;SDS011;64845;53.086;5.834;2023-07-28T04:01:52;26.05;;;6.40;;
76113;SDS011;64845;53.086;5.834;2023-07-28T04:04:18;25.13;;;5.63;;
76113;SDS011;64845;53.086;5.834;2023-07-28T04:06:47;21.90;;;5.88;;
76113;SDS011;64845;53.086;5.834;2023-07-28T04:09:15;26.40;;;6.15;;
76113;SDS011;64845;53.086;5.834;2023-07-28T04:11:42;19.77;;;5.53;;
76113;SDS011;64845;53.086;5.834;2023-07-28T04:14:07;18.92;;;5.43;;
76113;SDS011;64845;53.086;5.834;2023-07-28T04:16:32;16.80;;;5.85;;
76113;SDS011;64845;53.086;5.834;2023-07-28T04:18:58;13.15;;;5.03;;
76113;SDS011;64845;53.086;5.834;2023-07-28T04:21:23;30.92;;;6.38;;
76113;SDS011;64845;53.086;5.834;2023-07-28T04:23:49;27.42;;;5.57;;
76113;SDS011;64845;53.086;5.834;2023-07-28T04:26:16;24.55;;;6.47;;
76113;SDS011;64845;53.086;5.834;2023-07-28T04:28:42;22.35;;;5.93;;
76113;SDS011;64845;53.086;5.834;2023-07-28T04:31:07;25.55;;;5.97;;
76113;SDS011;64845;53.086;5.834;2023-07-28T04:33:32;40.47;;;6.20;;
76113;SDS011;64845;53.086;5.834;2023-07-28T04:35:59;23.30;;;7.35;;
76113;SDS011;64845;53.086;5.834;2023-07-28T04:38:24;21.25;;;7.45;;
76113;SDS011;64845;53.086;5.834;2023-07-28T04:40:49;23.45;;;7.90;;
76113;SDS011;64845;53.086;5.834;2023-07-28T04:43:15;20.50;;;7.82;;
76113;SDS011;64845;53.086;5.834;2023-07-28T04:45:40;17.77;;;7.20;;
76113;SDS011;64845;53.086;5.834;2023-07-28T04:48:05;21.10;;;7.63;;
76113;SDS011;64845;53.086;5.834;2023-07-28T04:50:31;18.35;;;7.80;;
76113;SDS011;64845;53.086;5.834;2023-07-28T04:52:58;21.48;;;7.82;;
76113;SDS011;64845;53.086;5.834;2023-07-28T04:55:24;17.73;;;7.22;;
76113;SDS011;64845;53.086;5.834;2023-07-28T04:57:49;25.77;;;7.90;;
76113;SDS011;64845;53.086;5.834;2023-07-28T05:00:15;17.30;;;7.20;;
76113;SDS011;64845;53.086;5.834;2023-07-28T05:02:40;25.10;;;8.30;;
76113;SDS011;64845;53.086;5.834;2023-07-28T05:05:06;15.98;;;7.68;;
76113;SDS011;64845;53.086;5.834;2023-07-28T05:07:31;18.88;;;8.13;;
76113;SDS011;64845;53.086;5.834;2023-07-28T05:09:57;19.30;;;8.18;;
76113;SDS011;64845;53.086;5.834;2023-07-28T05:12:22;19.73;;;8.70;;
76113;SDS011;64845;53.086;5.834;2023-07-28T05:14:48;20.65;;;8.57;;
76113;SDS011;64845;53.086;5.834;2023-07-28T05:17:13;18.02;;;8.32;;
76113;SDS011;64845;53.086;5.834;2023-07-28T05:19:38;20.17;;;8.48;;
76113;SDS011;64845;53.086;5.834;2023-07-28T05:22:04;22.65;;;8.63;;
76113;SDS011;64845;53.086;5.834;2023-07-28T05:24:31;23.48;;;9.65;;
76113;SDS011;64845;53.086;5.834;2023-07-28T05:26:57;19.45;;;9.82;;
76113;SDS011;64845;53.086;5.834;2023-07-28T05:29:22;18.05;;;9.60;;
76113;SDS011;64845;53.086;5.834;2023-07-28T05:31:47;24.30;;;10.77;;
76113;SDS011;64845;53.086;5.834;2023-07-28T05:34:25;18.65;;;10.52;;
76113;SDS011;64845;53.086;5.834;2023-07-28T05:36:53;19.67;;;11.05;;
76113;SDS011;64845;53.086;5.834;2023-07-28T05:39:19;20.48;;;12.05;;
76113;SDS011;64845;53.086;5.834;2023-07-28T05:41:44;20.17;;;10.52;;
76113;SDS011;64845;53.086;5.834;2023-07-28T05:44:10;21.08;;;10.23;;
76113;SDS011;64845;53.086;5.834;2023-07-28T05:46:35;18.65;;;9.77;;
76113;SDS011;64845;53.086;5.834;2023-07-28T05:49:01;20.50;;;10.32;;
76113;SDS011;64845;53.086;5.834;2023-07-28T05:51:26;17.58;;;9.35;;
76113;SDS011;64845;53.086;5.834;2023-07-28T05:53:52;16.58;;;10.30;;
76113;SDS011;64845;53.086;5.834;2023-07-28T05:56:17;15.20;;;10.23;;
76113;SDS011;64845;53.086;5.834;2023-07-28T05:58:44;14.02;;;9.55;;
76113;SDS011;64845;53.086;5.834;2023-07-28T06:01:10;14.70;;;8.88;;
76113;SDS011;64845;53.086;5.834;2023-07-28T06:03:36;15.82;;;9.38;;
76113;SDS011;64845;53.086;5.834;2023-07-28T06:06:01;13.38;;;7.85;;
76113;SDS011;64845;53.086;5.834;2023-07-28T06:08:27;12.07;;;8.23;;
76113;SDS011;64845;53.086;5.834;2023-07-28T06:10:53;8.80;;;7.43;;
76113;SDS011;64845;53.086;5.834;2023-07-28T06:13:18;11.82;;;8.77;;
76113;SDS011;64845;53.086;5.834;2023-07-28T06:15:44;10.18;;;8.75;;
76113;SDS011;64845;53.086;5.834;2023-07-28T06:18:09;14.98;;;8.75;;
76113;SDS011;64845;53.086;5.834;2023-07-28T06:20:35;12.13;;;8.57;;
76113;SDS011;64845;53.086;5.834;2023-07-28T06:23:00;14.55;;;8.45;;
76113;SDS011;64845;53.086;5.834;2023-07-28T06:25:26;13.35;;;9.15;;
76113;SDS011;64845;53.086;5.834;2023-07-28T06:27:51;10.18;;;8.48;;
76113;SDS011;64845;53.086;5.834;2023-07-28T06:30:17;15.40;;;8.60;;
76113;SDS011;64845;53.086;5.834;2023-07-28T06:32:42;12.50;;;7.75;;
76113;SDS011;64845;53.086;5.834;2023-07-28T06:35:08;8.85;;;7.45;;
76113;SDS011;64845;53.086;5.834;2023-07-28T06:37:34;12.45;;;7.47;;
76113;SDS011;64845;53.086;5.834;2023-07-28T06:40:02;9.20;;;6.65;;
76113;SDS011;64845;53.086;5.834;2023-07-28T06:42:30;11.95;;;6.22;;
76113;SDS011;64845;53.086;5.834;2023-07-28T06:44:56;11.48;;;6.85;;
76113;SDS011;64845;53.086;5.834;2023-07-28T06:47:22;14.93;;;7.72;;
76113;SDS011;64845;53.086;5.834;2023-07-28T06:49:47;10.77;;;7.90;;
76113;SDS011;64845;53.086;5.834;2023-07-28T06:52:12;12.07;;;9.02;;
76113;SDS011;64845;53.086;5.834;2023-07-28T06:54:38;16.65;;;9.45;;
76113;SDS011;64845;53.086;5.834;2023-07-28T06:57:04;13.80;;;9.48;;
76113;SDS011;64845;53.086;5.834;2023-07-28T06:59:31;15.68;;;9.63;;
76113;SDS011;64845;53.086;5.834;2023-07-28T07:01:57;12.88;;;9.85;;
76113;SDS011;64845;53.086;5.834;2023-07-28T07:04:22;13.07;;;9.63;;
76113;SDS011;64845;53.086;5.834;2023-07-28T07:06:47;13.18;;;9.73;;
76113;SDS011;64845;53.086;5.834;2023-07-28T07:09:13;14.02;;;9.90;;
76113;SDS011;64845;53.086;5.834;2023-07-28T07:11:41;15.13;;;10.27;;
76113;SDS011;64845;53.086;5.834;2023-07-28T07:14:07;13.73;;;10.60;;
76113;SDS011;64845;53.086;5.834;2023-07-28T07:16:32;16.23;;;9.57;;
76113;SDS011;64845;53.086;5.834;2023-07-28T07:18:59;12.50;;;9.15;;
76113;SDS011;64845;53.086;5.834;2023-07-28T07:21:24;13.57;;;9.98;;
76113;SDS011;64845;53.086;5.834;2023-07-28T07:23:49;12.15;;;9.95;;
76113;SDS011;64845;53.086;5.834;2023-07-28T07:26:15;12.10;;;8.75;;
76113;SDS011;64845;53.086;5.834;2023-07-28T07:28:40;15.43;;;8.25;;
76113;SDS011;64845;53.086;5.834;2023-07-28T07:31:15;9.43;;;6.97;;
76113;SDS011;64845;53.086;5.834;2023-07-28T07:33:41;10.32;;;7.07;;
76113;SDS011;64845;53.086;5.834;2023-07-28T07:36:14;10.90;;;7.80;;
76113;SDS011;64845;53.086;5.834;2023-07-28T07:38:40;9.30;;;7.65;;
76113;SDS011;64845;53.086;5.834;2023-07-28T07:41:06;13.60;;;7.68;;
76113;SDS011;64845;53.086;5.834;2023-07-28T07:43:34;15.15;;;7.25;;
76113;SDS011;64845;53.086;5.834;2023-07-28T07:45:59;10.52;;;6.70;;
76113;SDS011;64845;53.086;5.834;2023-07-28T07:48:25;10.95;;;6.65;;
76113;SDS011;64845;53.086;5.834;2023-07-28T07:50:51;10.35;;;6.45;;
76113;SDS011;64845;53.086;5.834;2023-07-28T07:53:16;9.15;;;6.25;;
76113;SDS011;64845;53.086;5.834;2023-07-28T07:55:42;11.15;;;6.88;;
76113;SDS011;64845;53.086;5.834;2023-07-28T07:58:07;10.82;;;5.82;;
76113;SDS011;64845;53.086;5.834;2023-07-28T08:00:33;9.90;;;5.65;;
76113;SDS011;64845;53.086;5.834;2023-07-28T08:02:59;7.30;;;6.60;;
76113;SDS011;64845;53.086;5.834;2023-07-28T08:05:24;10.70;;;6.70;;
76113;SDS011;64845;53.086;5.834;2023-07-28T08:07:50;14.52;;;6.30;;
76113;SDS011;64845;53.086;5.834;2023-07-28T08:10:15;9.52;;;5.63;;
76113;SDS011;64845;53.086;5.834;2023-07-28T08:12:42;10.60;;;5.70;;
76113;SDS011;64845;53.086;5.834;2023-07-28T08:15:09;9.13;;;5.28;;
76113;SDS011;64845;53.086;5.834;2023-07-28T08:17:35;6.43;;;4.40;;
76113;SDS011;64845;53.086;5.834;2023-07-28T08:20:00;6.57;;;3.72;;
76113;SDS011;64845;53.086;5.834;2023-07-28T08:22:26;7.05;;;4.15;;
76113;SDS011;64845;53.086;5.834;2023-07-28T08:24:52;8.88;;;4.20;;
76113;SDS011;64845;53.086;5.834;2023-07-28T08:27:17;10.38;;;3.75;;
76113;SDS011;64845;53.086;5.834;2023-07-28T08:29:42;8.48;;;3.30;;
76113;SDS011;64845;53.086;5.834;2023-07-28T08:32:08;4.43;;;3.28;;
76113;SDS011;64845;53.086;5.834;2023-07-28T08:34:34;5.28;;;3.55;;
76113;SDS011;64845;53.086;5.834;2023-07-28T08:36:59;5.97;;;2.92;;
76113;SDS011;64845;53.086;5.834;2023-07-28T08:39:24;4.55;;;3.00;;
76113;SDS011;64845;53.086;5.834;2023-07-28T08:42:02;5.10;;;3.15;;
76113;SDS011;64845;53.086;5.834;2023-07-28T08:44:30;6.13;;;3.40;;
76113;SDS011;64845;53.086;5.834;2023-07-28T08:46:57;5.88;;;3.35;;
76113;SDS011;64845;53.086;5.834;2023-07-28T08:49:23;8.35;;;2.78;;
76113;SDS011;64845;53.086;5.834;2023-07-28T08:51:49;4.57;;;2.80;;
76113;SDS011;64845;53.086;5.834;2023-07-28T08:54:15;4.85;;;3.30;;
76113;SDS011;64845;53.086;5.834;2023-07-28T08:56:42;7.20;;;2.83;;
76113;SDS011;64845;53.086;5.834;2023-07-28T08:59:08;5.22;;;2.20;;
76113;SDS011;64845;53.086;5.834;2023-07-28T09:01:38;3.65;;;2.17;;
76113;SDS011;64845;53.086;5.834;2023-07-28T09:04:11;3.25;;;1.98;;
76113;SDS011;64845;53.086;5.834;2023-07-28T09:06:37;5.50;;;2.13;;
76113;SDS011;64845;53.086;5.834;2023-07-28T09:09:05;5.70;;;2.50;;
76113;SDS011;64845;53.086;5.834;2023-07-28T09:11:31;5.18;;;2.50;;
76113;SDS011;64845;53.086;5.834;2023-07-28T09:13:59;5.50;;;2.63;;
76113;SDS011;64845;53.086;5.834;2023-07-28T09:16:25;6.30;;;2.58;;
76113;SDS011;64845;53.086;5.834;2023-07-28T09:18:58;5.25;;;2.80;;
76113;SDS011;64845;53.086;5.834;2023-07-28T09:21:30;4.32;;;2.50;;
76113;SDS011;64845;53.086;5.834;2023-07-28T09:23:55;3.35;;;2.53;;
76113;SDS011;64845;53.086;5.834;2023-07-28T09:26:21;7.93;;;2.60;;
76113;SDS011;64845;53.086;5.834;2023-07-28T09:28:46;5.32;;;2.78;;
76113;SDS011;64845;53.086;5.834;2023-07-28T09:31:12;8.23;;;2.42;;
76113;SDS011;64845;53.086;5.834;2023-07-28T09:33:37;5.75;;;2.30;;
76113;SDS011;64845;53.086;5.834;2023-07-28T09:38:37;6.43;;;2.10;;
76113;SDS011;64845;53.086;5.834;2023-07-28T09:41:05;3.67;;;2.28;;
76113;SDS011;64845;53.086;5.834;2023-07-28T09:43:34;4.15;;;2.38;;
76113;SDS011;64845;53.086;5.834;2023-07-28T09:46:00;5.93;;;2.30;;
76113;SDS011;64845;53.086;5.834;2023-07-28T09:48:29;7.60;;;2.20;;
76113;SDS011;64845;53.086;5.834;2023-07-28T09:50:57;3.80;;;2.20;;
76113;SDS011;64845;53.086;5.834;2023-07-28T09:53:24;5.18;;;2.40;;
76113;SDS011;64845;53.086;5.834;2023-07-28T09:55:53;4.70;;;1.98;;
76113;SDS011;64845;53.086;5.834;2023-07-28T09:58:18;5.50;;;2.00;;
76113;SDS011;64845;53.086;5.834;2023-07-28T10:00:49;9.18;;;2.42;;
76113;SDS011;64845;53.086;5.834;2023-07-28T10:03:16;3.20;;;2.00;;
76113;SDS011;64845;53.086;5.834;2023-07-28T10:05:41;2.92;;;2.00;;
76113;SDS011;64845;53.086;5.834;2023-07-28T10:08:07;4.63;;;2.00;;
76113;SDS011;64845;53.086;5.834;2023-07-28T10:10:34;2.50;;;1.50;;
76113;SDS011;64845;53.086;5.834;2023-07-28T10:13:01;4.05;;;1.60;;
76113;SDS011;64845;53.086;5.834;2023-07-28T10:15:28;2.78;;;1.83;;
76113;SDS011;64845;53.086;5.834;2023-07-28T10:17:56;4.57;;;1.70;;
76113;SDS011;64845;53.086;5.834;2023-07-28T10:25:34;4.40;;;1.42;;
76113;SDS011;64845;53.086;5.834;2023-07-28T10:28:00;1.67;;;1.45;;
76113;SDS011;64845;53.086;5.834;2023-07-28T10:30:27;5.00;;;1.55;;
76113;SDS011;64845;53.086;5.834;2023-07-28T10:32:54;2.60;;;1.70;;
76113;SDS011;64845;53.086;5.834;2023-07-28T10:35:25;3.95;;;1.90;;
76113;SDS011;64845;53.086;5.834;2023-07-28T10:37:53;4.43;;;1.80;;
76113;SDS011;64845;53.086;5.834;2023-07-28T10:40:33;2.33;;;1.73;;
76113;SDS011;64845;53.086;5.834;2023-07-28T10:43:00;4.85;;;1.50;;
76113;SDS011;64845;53.086;5.834;2023-07-28T10:45:27;1.95;;;1.40;;
76113;SDS011;64845;53.086;5.834;2023-07-28T10:47:54;4.85;;;1.98;;
76113;SDS011;64845;53.086;5.834;2023-07-28T10:50:25;3.50;;;1.98;;
76113;SDS011;64845;53.086;5.834;2023-07-28T10:52:52;4.22;;;2.00;;
76113;SDS011;64845;53.086;5.834;2023-07-28T10:55:19;2.65;;;1.85;;
76113;SDS011;64845;53.086;5.834;2023-07-28T10:57:46;3.17;;;1.88;;
76113;SDS011;64845;53.086;5.834;2023-07-28T11:00:14;2.42;;;2.00;;
76113;SDS011;64845;53.086;5.834;2023-07-28T11:02:44;2.45;;;1.77;;
76113;SDS011;64845;53.086;5.834;2023-07-28T11:05:10;5.40;;;2.30;;
76113;SDS011;64845;53.086;5.834;2023-07-28T11:07:42;5.20;;;2.40;;
76113;SDS011;64845;53.086;5.834;2023-07-28T11:10:09;2.60;;;2.17;;
76113;SDS011;64845;53.086;5.834;2023-07-28T11:12:38;6.53;;;1.90;;
76113;SDS011;64845;53.086;5.834;2023-07-28T11:15:06;10.68;;;2.10;;
76113;SDS011;64845;53.086;5.834;2023-07-28T11:20:01;2.60;;;1.83;;
76113;SDS011;64845;53.086;5.834;2023-07-28T11:22:27;7.07;;;2.03;;
76113;SDS011;64845;53.086;5.834;2023-07-28T11:24:53;4.47;;;2.47;;
76113;SDS011;64845;53.086;5.834;2023-07-28T11:27:18;6.15;;;2.22;;
76113;SDS011;64845;53.086;5.834;2023-07-28T11:29:43;3.08;;;2.17;;
76113;SDS011;64845;53.086;5.834;2023-07-28T11:32:09;4.63;;;2.50;;
76113;SDS011;64845;53.086;5.834;2023-07-28T11:34:35;4.32;;;2.60;;
76113;SDS011;64845;53.086;5.834;2023-07-28T11:37:00;5.47;;;2.38;;
76113;SDS011;64845;53.086;5.834;2023-07-28T11:39:28;6.03;;;2.30;;
76113;SDS011;64845;53.086;5.834;2023-07-28T11:41:54;4.72;;;2.60;;
76113;SDS011;64845;53.086;5.834;2023-07-28T11:44:20;4.95;;;2.40;;
76113;SDS011;64845;53.086;5.834;2023-07-28T11:46:46;5.10;;;2.58;;
76113;SDS011;64845;53.086;5.834;2023-07-28T11:49:15;5.75;;;2.90;;
76113;SDS011;64845;53.086;5.834;2023-07-28T11:51:47;6.28;;;3.40;;
76113;SDS011;64845;53.086;5.834;2023-07-28T11:54:14;7.45;;;2.75;;
76113;SDS011;64845;53.086;5.834;2023-07-28T11:56:45;4.25;;;2.50;;
76113;SDS011;64845;53.086;5.834;2023-07-28T11:59:11;7.30;;;2.38;;
76113;SDS011;64845;53.086;5.834;2023-07-28T12:01:56;8.18;;;2.65;;
76113;SDS011;64845;53.086;5.834;2023-07-28T12:04:29;6.22;;;2.63;;
76113;SDS011;64845;53.086;5.834;2023-07-28T12:07:08;5.63;;;3.03;;
76113;SDS011;64845;53.086;5.834;2023-07-28T12:12:21;8.30;;;2.75;;
76113;SDS011;64845;53.086;5.834;2023-07-28T12:14:48;3.28;;;2.17;;
76113;SDS011;64845;53.086;5.834;2023-07-28T12:17:20;4.38;;;2.42;;
76113;SDS011;64845;53.086;5.834;2023-07-28T12:22:26;6.20;;;2.97;;
76113;SDS011;64845;53.086;5.834;2023-07-28T12:24:52;6.13;;;3.13;;
76113;SDS011;64845;53.086;5.834;2023-07-28T12:27:18;8.35;;;3.70;;
76113;SDS011;64845;53.086;5.834;2023-07-28T12:29:48;4.10;;;2.80;;
76113;SDS011;64845;53.086;5.834;2023-07-28T12:32:14;6.00;;;3.40;;
76113;SDS011;64845;53.086;5.834;2023-07-28T12:34:39;8.02;;;2.88;;
76113;SDS011;64845;53.086;5.834;2023-07-28T12:37:05;7.22;;;3.30;;
76113;SDS011;64845;53.086;5.834;2023-07-28T12:39:31;5.32;;;2.95;;
76113;SDS011;64845;53.086;5.834;2023-07-28T12:41:57;6.05;;;3.30;;
76113;SDS011;64845;53.086;5.834;2023-07-28T12:44:22;5.22;;;2.78;;
76113;SDS011;64845;53.086;5.834;2023-07-28T12:46:47;5.75;;;3.08;;
76113;SDS011;64845;53.086;5.834;2023-07-28T12:49:13;7.93;;;3.10;;
76113;SDS011;64845;53.086;5.834;2023-07-28T12:51:39;5.95;;;3.13;;
76113;SDS011;64845;53.086;5.834;2023-07-28T12:54:05;3.80;;;2.70;;
76113;SDS011;64845;53.086;5.834;2023-07-28T12:56:30;7.78;;;3.15;;
76113;SDS011;64845;53.086;5.834;2023-07-28T12:58:56;4.88;;;2.95;;
76113;SDS011;64845;53.086;5.834;2023-07-28T13:01:21;6.82;;;3.28;;
76113;SDS011;64845;53.086;5.834;2023-07-28T13:03:47;7.18;;;2.90;;
76113;SDS011;64845;53.086;5.834;2023-07-28T13:06:12;8.80;;;3.40;;
76113;SDS011;64845;53.086;5.834;2023-07-28T13:08:37;8.13;;;3.38;;
76113;SDS011;64845;53.086;5.834;2023-07-28T13:11:03;7.07;;;4.18;;
76113;SDS011;64845;53.086;5.834;2023-07-28T13:13:29;5.18;;;3.47;;
76113;SDS011;64845;53.086;5.834;2023-07-28T13:15:55;6.85;;;3.50;;
76113;SDS011;64845;53.086;5.834;2023-07-28T13:18:21;6.72;;;4.30;;
76113;SDS011;64845;53.086;5.834;2023-07-28T13:20:46;9.70;;;3.90;;
76113;SDS011;64845;53.086;5.834;2023-07-28T13:23:12;8.75;;;4.68;;
76113;SDS011;64845;53.086;5.834;2023-07-28T13:25:37;8.65;;;3.65;;
76113;SDS011;64845;53.086;5.834;2023-07-28T13:28:03;4.60;;;3.38;;
76113;SDS011;64845;53.086;5.834;2023-07-28T13:30:29;5.00;;;4.50;;
76113;SDS011;64845;53.086;5.834;2023-07-28T13:32:54;9.60;;;4.70;;
76113;SDS011;64845;53.086;5.834;2023-07-28T13:35:20;6.25;;;4.28;;
76113;SDS011;64845;53.086;5.834;2023-07-28T13:37:45;6.72;;;4.20;;
76113;SDS011;64845;53.086;5.834;2023-07-28T13:40:10;8.15;;;4.40;;
76113;SDS011;64845;53.086;5.834;2023-07-28T13:42:36;9.38;;;4.78;;
76113;SDS011;64845;53.086;5.834;2023-07-28T13:45:01;8.32;;;4.53;;
76113;SDS011;64845;53.086;5.834;2023-07-28T13:47:26;8.88;;;5.22;;
76113;SDS011;64845;53.086;5.834;2023-07-28T13:49:52;6.97;;;4.65;;
76113;SDS011;64845;53.086;5.834;2023-07-28T13:52:17;11.20;;;4.57;;
76113;SDS011;64845;53.086;5.834;2023-07-28T13:54:43;6.20;;;4.18;;
76113;SDS011;64845;53.086;5.834;2023-07-28T13:57:09;11.30;;;4.40;;
76113;SDS011;64845;53.086;5.834;2023-07-28T13:59:35;6.35;;;3.67;;
76113;SDS011;64845;53.086;5.834;2023-07-28T14:02:01;7.35;;;4.15;;
76113;SDS011;64845;53.086;5.834;2023-07-28T14:04:26;7.22;;;4.65;;
76113;SDS011;64845;53.086;5.834;2023-07-28T14:06:51;11.15;;;5.22;;
76113;SDS011;64845;53.086;5.834;2023-07-28T14:09:17;8.50;;;4.35;;
76113;SDS011;64845;53.086;5.834;2023-07-28T14:11:42;10.32;;;5.55;;
76113;SDS011;64845;53.086;5.834;2023-07-28T14:14:08;6.28;;;4.72;;
76113;SDS011;64845;53.086;5.834;2023-07-28T14:16:33;5.20;;;4.68;;
76113;SDS011;64845;53.086;5.834;2023-07-28T14:18:59;7.45;;;4.47;;
76113;SDS011;64845;53.086;5.834;2023-07-28T14:21:24;7.22;;;4.32;;
76113;SDS011;64845;53.086;5.834;2023-07-28T14:23:49;6.70;;;4.28;;
76113;SDS011;64845;53.086;5.834;2023-07-28T14:26:15;11.13;;;4.47;;
76113;SDS011;64845;53.086;5.834;2023-07-28T14:28:40;9.65;;;4.40;;
76113;SDS011;64845;53.086;5.834;2023-07-28T14:31:06;8.77;;;4.82;;
76113;SDS011;64845;53.086;5.834;2023-07-28T14:33:31;9.80;;;5.07;;
76113;SDS011;64845;53.086;5.834;2023-07-28T14:35:56;10.18;;;5.90;;
76113;SDS011;64845;53.086;5.834;2023-07-28T14:38:22;10.18;;;5.68;;
76113;SDS011;64845;53.086;5.834;2023-07-28T14:40:47;8.93;;;5.45;;
76113;SDS011;64845;53.086;5.834;2023-07-28T14:43:14;9.02;;;5.75;;
76113;SDS011;64845;53.086;5.834;2023-07-28T14:45:40;9.27;;;5.00;;
76113;SDS011;64845;53.086;5.834;2023-07-28T14:48:06;7.97;;;5.10;;
76113;SDS011;64845;53.086;5.834;2023-07-28T14:50:31;11.38;;;5.97;;
76113;SDS011;64845;53.086;5.834;2023-07-28T14:52:58;10.20;;;6.13;;